Time;durP1;ratioP1;P1;durP2;ratioP2;P2;SDS_P1;SDS_P2;PMS_P1;PMS_P2;Temp;Humidity;BMP_temperature;BMP_pressure;BME280_temperature;BME280_humidity;BME280_pressure;Samples;Min_cycle;Max_cycle;Signal;HPM_P1;HPM_P2
2023/01/26 00:00:54;;;;;;;39.47;16.53;;;;;;;2.50;66.10;102243.22;4950556;28;97118;-79
2023/01/26 00:03:20;;;;;;;40.67;16.27;;;;;;;2.53;65.97;102250.56;4941488;28;97000;-78
2023/01/26 00:05:46;;;;;;;41.63;17.87;;;;;;;2.57;66.04;102254.81;4945266;28;98395;-79
2023/01/26 00:08:12;;;;;;;39.30;16.97;;;;;;;2.57;65.89;102241.22;4947827;28;97637;-78
2023/01/26 00:10:39;;;;;;;40.50;17.07;;;;;;;2.53;65.71;102242.44;4944533;28;96932;-78
2023/01/26 00:13:06;;;;;;;38.03;16.40;;;;;;;2.54;65.96;102254.81;4956011;28;96694;-79
2023/01/26 00:15:32;;;;;;;43.23;18.20;;;;;;;2.57;66.00;102224.94;4950897;28;100348;-78
2023/01/26 00:17:59;;;;;;;41.97;17.43;;;;;;;2.60;65.85;102229.56;4945491;28;97286;-78
2023/01/26 00:20:25;;;;;;;37.23;15.80;;;;;;;2.57;65.81;102246.66;4946247;28;97315;-78
2023/01/26 00:22:50;;;;;;;43.30;17.17;;;;;;;2.57;65.90;102227.66;4945918;28;96995;-78
2023/01/26 00:25:16;;;;;;;34.40;14.80;;;;;;;2.59;65.84;102221.81;4952350;28;98199;-78
2023/01/26 00:27:41;;;;;;;40.00;16.37;;;;;;;2.57;66.10;102224.94;4957122;28;100298;-77
2023/01/26 00:30:07;;;;;;;41.73;15.60;;;;;;;2.57;65.87;102224.94;4947162;28;97579;-77
2023/01/26 00:32:35;;;;;;;40.90;16.70;;;;;;;2.55;65.82;102226.50;4952544;28;97319;-77
2023/01/26 00:35:00;;;;;;;44.03;17.07;;;;;;;2.46;65.82;102213.38;4945525;28;97819;-78
2023/01/26 00:37:25;;;;;;;41.00;16.90;;;;;;;2.55;65.94;102202.84;4952344;28;96729;-77
2023/01/26 00:39:51;;;;;;;38.30;15.80;;;;;;;2.52;65.85;102211.00;4953612;28;97440;-78
2023/01/26 00:42:16;;;;;;;38.60;15.77;;;;;;;2.55;66.06;102207.47;4957770;28;97313;-78
2023/01/26 00:44:42;;;;;;;42.13;15.50;;;;;;;2.59;66.19;102211.72;4952312;28;98798;-77
2023/01/26 00:47:10;;;;;;;41.03;16.93;;;;;;;2.57;66.02;102188.84;4942149;28;98885;-77
2023/01/26 00:49:36;;;;;;;42.57;17.03;;;;;;;2.56;66.09;102204.38;4938120;28;97207;-78
2023/01/26 00:52:02;;;;;;;39.37;16.00;;;;;;;2.58;66.02;102190.41;4952229;28;96648;-78
2023/01/26 00:54:28;;;;;;;41.40;17.47;;;;;;;2.58;66.13;102202.00;4946126;28;99017;-77
2023/01/26 00:56:54;;;;;;;44.60;17.03;;;;;;;2.63;65.94;102179.09;4951381;28;96753;-79
2023/01/26 00:59:20;;;;;;;39.63;15.20;;;;;;;2.61;66.13;102186.88;4949838;28;96862;-78
2023/01/26 01:01:46;;;;;;;40.13;16.63;;;;;;;2.65;66.04;102187.59;4949438;28;96843;-78
2023/01/26 01:04:12;;;;;;;42.43;16.10;;;;;;;2.64;65.86;102194.22;4946099;28;97984;-78
2023/01/26 01:06:38;;;;;;;37.07;15.10;;;;;;;2.60;66.00;102191.53;4950095;28;97290;-79
2023/01/26 01:09:03;;;;;;;38.20;16.63;;;;;;;2.59;66.04;102198.13;4943973;28;97348;-78
2023/01/26 01:11:29;;;;;;;41.83;16.43;;;;;;;2.56;66.18;102182.63;4944076;28;96713;-77
2023/01/26 01:13:54;;;;;;;36.53;15.57;;;;;;;2.58;66.36;102195.84;4949939;28;99612;-77
2023/01/26 01:16:20;;;;;;;43.43;15.63;;;;;;;2.53;66.00;102188.09;4948672;28;97690;-79
2023/01/26 01:18:45;;;;;;;36.57;14.60;;;;;;;2.55;66.30;102183.03;4954226;28;97063;-78
2023/01/26 01:21:15;;;;;;;42.93;16.33;;;;;;;2.59;66.08;102184.56;4943976;28;96779;-79
2023/01/26 01:23:42;;;;;;;39.23;14.80;;;;;;;2.62;66.41;102172.88;4949343;28;97863;-78
2023/01/26 01:26:08;;;;;;;43.50;15.60;;;;;;;2.62;66.14;102172.88;4947877;28;98917;-77
2023/01/26 01:28:35;;;;;;;38.17;15.60;;;;;;;2.65;66.18;102174.81;4950628;28;97211;-78
2023/01/26 01:31:08;;;;;;;40.07;16.00;;;;;;;2.66;66.12;102165.50;4949928;28;96991;-77
2023/01/26 01:33:33;;;;;;;44.30;15.40;;;;;;;2.69;66.21;102193.78;4938968;28;100777;-78
2023/01/26 01:36:04;;;;;;;41.30;15.33;;;;;;;2.69;66.05;102169.31;4946330;28;99011;-78
2023/01/26 01:38:30;;;;;;;49.23;18.13;;;;;;;2.69;66.06;102167.38;4955131;28;97158;-77
2023/01/26 01:40:56;;;;;;;45.70;17.10;;;;;;;2.68;66.21;102165.09;4943957;28;96791;-78
2023/01/26 01:43:22;;;;;;;48.13;15.77;;;;;;;2.70;66.04;102176.31;4962492;28;99020;-78
2023/01/26 01:45:49;;;;;;;43.10;15.67;;;;;;;2.74;66.11;102168.91;4953193;28;98214;-77
2023/01/26 01:48:53;;;;;;;43.93;17.33;;;;;;;2.76;66.10;102161.13;4948725;28;96980;-78
2023/01/26 01:51:40;;;;;;;58.10;16.20;;;;;;;2.73;66.04;102154.53;4946586;28;97013;-78
2023/01/26 01:54:10;;;;;;;38.33;14.40;;;;;;;2.72;66.00;102172.03;4938527;28;99593;-78
2023/01/26 01:56:39;;;;;;;47.50;17.63;;;;;;;2.69;65.91;102164.66;4941188;28;97660;-77
2023/01/26 01:59:08;;;;;;;45.80;17.10;;;;;;;2.61;65.91;102156.97;4956013;28;97374;-78
2023/01/26 02:01:33;;;;;;;46.13;16.23;;;;;;;2.60;66.15;102164.34;4937992;28;96777;-78
2023/01/26 02:04:03;;;;;;;44.87;17.00;;;;;;;2.58;66.00;102172.13;4937506;28;100445;-77
2023/01/26 02:06:49;;;;;;;53.23;17.50;;;;;;;2.56;66.04;102144.59;4951348;28;96873;-78
2023/01/26 02:12:04;;;;;;;46.20;16.80;;;;;;;2.52;66.10;102141.16;4951504;28;97284;-78
2023/01/26 02:14:32;;;;;;;45.53;18.20;;;;;;;2.54;66.34;102141.50;4950572;28;100435;-78
2023/01/26 02:16:57;;;;;;;48.83;18.27;;;;;;;2.55;66.22;102134.91;4947391;28;97187;-78
2023/01/26 02:20:08;;;;;;;48.20;18.10;;;;;;;2.56;66.21;102141.09;4944460;28;99948;-78
2023/01/26 02:22:59;;;;;;;38.33;15.00;;;;;;;2.58;66.49;102138.78;4953131;28;97131;-79
2023/01/26 02:25:48;;;;;;;45.03;17.10;;;;;;;2.58;66.52;102131.38;4943928;28;98059;-78
2023/01/26 02:28:13;;;;;;;45.30;16.63;;;;;;;2.61;66.43;102133.31;4942895;28;99814;-78
2023/01/26 02:30:38;;;;;;;44.40;17.13;;;;;;;2.64;66.34;102154.25;4946142;28;97180;-78
2023/01/26 02:33:04;;;;;;;44.80;18.60;;;;;;;2.66;66.30;102142.97;4944011;28;99777;-78
2023/01/26 02:35:29;;;;;;;43.80;16.67;;;;;;;2.68;66.28;102144.13;4959828;28;100206;-78
2023/01/26 02:37:54;;;;;;;44.47;17.33;;;;;;;2.63;66.19;102130.97;4947632;28;100230;-78
2023/01/26 02:40:31;;;;;;;52.57;19.47;;;;;;;2.68;66.09;102149.56;4945258;28;97243;-78
2023/01/26 02:42:56;;;;;;;52.90;19.00;;;;;;;2.70;66.22;102128.19;4950973;28;96996;-76
2023/01/26 02:45:23;;;;;;;48.20;16.80;;;;;;;2.69;66.27;102139.44;4969513;28;97552;-78
2023/01/26 02:47:48;;;;;;;52.03;19.47;;;;;;;2.69;66.24;102134.00;4941075;28;99041;-78
2023/01/26 02:50:14;;;;;;;49.57;17.73;;;;;;;2.67;66.22;102139.06;4948992;28;96960;-78
2023/01/26 02:52:40;;;;;;;55.97;19.10;;;;;;;2.67;66.15;102137.13;4946868;28;97150;-78
2023/01/26 02:55:21;;;;;;;55.47;19.37;;;;;;;2.69;66.12;102132.06;4946003;28;97612;-78
2023/01/26 02:57:48;;;;;;;55.60;19.20;;;;;;;2.69;66.38;102153.81;4952979;28;99178;-78
2023/01/26 03:00:16;;;;;;;53.43;20.40;;;;;;;2.71;66.06;102124.28;4951260;28;96980;-79
2023/01/26 03:02:42;;;;;;;50.87;19.37;;;;;;;2.69;66.22;102134.78;4946047;28;96887;-78
2023/01/26 03:05:08;;;;;;;52.50;19.03;;;;;;;2.65;66.21;102115.03;4950745;28;99225;-80
2023/01/26 03:07:34;;;;;;;58.90;20.20;;;;;;;2.66;66.52;102115.81;4958835;28;99056;-79
2023/01/26 03:09:59;;;;;;;60.57;19.80;;;;;;;2.67;66.53;102137.13;4943995;28;97104;-79
2023/01/26 03:12:26;;;;;;;64.57;22.87;;;;;;;2.69;66.31;102118.47;4949169;28;97561;-78
2023/01/26 03:17:36;;;;;;;57.33;19.33;;;;;;;2.74;66.34;102142.50;4945646;28;96819;-78
2023/01/26 03:28:15;;;;;;;60.30;17.47;;;;;;;2.76;66.41;102129.28;4948191;28;97139;-79
2023/01/26 03:30:40;;;;;;;56.00;20.17;;;;;;;2.76;66.13;102114.94;4951829;28;97075;-77
2023/01/26 03:33:05;;;;;;;55.70;18.43;;;;;;;2.75;66.03;102111.44;4942219;28;96921;-77
2023/01/26 03:35:31;;;;;;;54.40;18.50;;;;;;;2.66;66.32;102151.13;4952008;28;100853;-78
2023/01/26 03:37:56;;;;;;;52.43;19.17;;;;;;;2.76;66.41;102109.50;4945281;28;99414;-77
2023/01/26 03:56:48;;;;;;;48.93;17.20;;;;;;;2.71;66.52;102105.25;4950645;28;97560;-78
2023/01/26 03:59:15;;;;;;;50.10;16.33;;;;;;;2.74;66.48;102096.31;4961592;28;100475;-78
2023/01/26 04:09:56;;;;;;;51.73;16.50;;;;;;;2.78;66.35;102104.44;4941263;28;96757;-79
2023/01/26 04:12:21;;;;;;;47.30;17.27;;;;;;;2.78;66.27;102093.56;4946250;28;96910;-78
2023/01/26 04:22:59;;;;;;;54.97;17.63;;;;;;;2.77;66.59;102100.97;4946768;28;96994;-78
2023/01/26 04:25:24;;;;;;;48.97;17.60;;;;;;;2.77;66.51;102098.25;4941652;28;97200;-78
2023/01/26 04:27:49;;;;;;;49.80;17.47;;;;;;;2.78;66.34;102088.13;4941553;28;98709;-78
2023/01/26 04:30:16;;;;;;;50.73;17.30;;;;;;;2.81;66.56;102084.59;4948884;28;97367;-78
2023/01/26 04:32:41;;;;;;;52.23;18.10;;;;;;;2.81;66.52;102087.31;4940738;28;96774;-79
2023/01/26 04:35:08;;;;;;;52.80;18.67;;;;;;;2.82;66.49;102089.63;4943965;28;97514;-78
2023/01/26 04:37:34;;;;;;;51.10;16.60;;;;;;;2.83;66.31;102074.09;4954372;28;99135;-78
2023/01/26 04:39:59;;;;;;;55.83;18.03;;;;;;;2.85;66.68;102088.84;4949144;28;96725;-78
2023/01/26 04:42:25;;;;;;;57.17;18.43;;;;;;;2.86;66.32;102076.03;4947492;28;97175;-79
2023/01/26 04:44:51;;;;;;;44.70;16.43;;;;;;;2.89;66.45;102075.97;4952052;28;96730;-78
2023/01/26 04:47:18;;;;;;;57.97;18.77;;;;;;;2.89;66.49;102077.91;4947639;28;100774;-78
2023/01/26 04:49:43;;;;;;;49.67;18.27;;;;;;;2.86;66.71;102074.06;4947638;28;97109;-76
2023/01/26 04:52:09;;;;;;;56.10;18.20;;;;;;;2.85;66.32;102053.50;4944638;28;97498;-78
2023/01/26 04:54:34;;;;;;;70.10;21.07;;;;;;;2.82;66.60;102076.03;4942972;28;97817;-78
2023/01/26 04:56:59;;;;;;;56.13;18.90;;;;;;;2.81;66.73;102050.06;4943081;28;97990;-78
2023/01/26 04:59:25;;;;;;;51.53;17.30;;;;;;;2.86;66.44;102060.47;4951581;28;97199;-79
2023/01/26 05:01:50;;;;;;;52.40;18.60;;;;;;;2.88;66.67;102123.34;4958535;28;97007;-78
2023/01/26 05:04:15;;;;;;;61.30;19.63;;;;;;;2.90;66.55;102091.13;4944107;28;96808;-78
2023/01/26 05:06:41;;;;;;;52.67;16.73;;;;;;;2.96;66.74;102061.53;4940547;28;97400;-77
2023/01/26 05:09:07;;;;;;;49.30;16.40;;;;;;;2.97;66.55;102052.97;4951560;28;97529;-77
2023/01/26 05:11:33;;;;;;;50.43;17.00;;;;;;;2.97;66.44;102060.38;4941798;28;97464;-77
2023/01/26 05:13:58;;;;;;;43.00;15.87;;;;;;;2.98;66.52;102054.53;4952855;28;97092;-78
2023/01/26 05:16:24;;;;;;;50.20;17.57;;;;;;;3.00;66.51;102054.13;4950307;28;97466;-78
2023/01/26 05:18:50;;;;;;;54.50;18.20;;;;;;;2.99;66.66;102060.75;4948374;28;99266;-79
2023/01/26 05:21:15;;;;;;;51.17;16.57;;;;;;;2.99;66.64;102060.75;4949887;28;96692;-77
2023/01/26 05:23:40;;;;;;;56.70;18.67;;;;;;;2.99;66.40;102104.22;4949378;28;96890;-77
2023/01/26 05:26:06;;;;;;;48.33;16.50;;;;;;;2.95;66.65;102060.75;4944962;28;99550;-78
2023/01/26 05:28:33;;;;;;;56.20;17.37;;;;;;;3.05;66.63;102108.03;4946131;28;97198;-78
2023/01/26 05:30:58;;;;;;;54.37;19.00;;;;;;;3.03;66.35;102051.38;4949665;28;96689;-78
2023/01/26 05:33:24;;;;;;;54.00;18.20;;;;;;;3.05;66.72;102056.41;4948824;28;97150;-77
2023/01/26 05:35:50;;;;;;;52.67;16.90;;;;;;;3.04;66.57;102057.56;4956816;28;98953;-78
2023/01/26 05:38:16;;;;;;;65.63;19.03;;;;;;;3.08;66.67;102074.59;4947613;28;97419;-79
2023/01/26 05:40:41;;;;;;;58.27;18.00;;;;;;;3.08;66.59;102069.16;4945212;28;96695;-78
2023/01/26 05:43:07;;;;;;;57.80;17.27;;;;;;;3.07;66.66;102069.56;4959832;28;97234;-79
2023/01/26 05:45:33;;;;;;;57.90;18.87;;;;;;;3.08;66.74;102069.16;4952470;28;97065;-78
2023/01/26 05:47:59;;;;;;;56.77;19.40;;;;;;;3.09;66.85;102067.22;4944424;28;97115;-78
2023/01/26 05:50:24;;;;;;;52.33;17.60;;;;;;;3.08;66.48;102055.56;4950758;28;96680;-77
2023/01/26 05:52:50;;;;;;;59.90;18.07;;;;;;;3.04;66.39;102054.84;4960273;28;97181;-78
2023/01/26 05:55:15;;;;;;;51.37;17.87;;;;;;;3.02;66.60;102054.47;4943535;28;96971;-77
2023/01/26 05:57:40;;;;;;;49.37;17.23;;;;;;;3.07;66.91;102080.44;4951202;28;98749;-78
2023/01/26 06:00:07;;;;;;;64.70;19.30;;;;;;;3.11;66.46;102070.28;4952952;28;96996;-78
2023/01/26 06:02:33;;;;;;;56.43;17.40;;;;;;;3.13;66.44;102065.22;4944384;28;97518;-77
2023/01/26 06:04:58;;;;;;;58.53;19.10;;;;;;;3.10;66.51;102074.22;4951506;28;96893;-81
2023/01/26 06:07:25;;;;;;;59.03;19.90;;;;;;;3.11;66.55;102070.28;4953481;28;97451;-79
2023/01/26 06:09:50;;;;;;;58.87;18.60;;;;;;;3.09;66.38;102088.97;4946432;28;96748;-79
2023/01/26 06:12:18;;;;;;;61.33;18.93;;;;;;;3.09;66.59;102062.56;4947116;28;97356;-77
2023/01/26 06:14:44;;;;;;;64.63;20.00;;;;;;;3.06;66.80;102076.94;4949010;28;97713;-78
2023/01/26 06:17:10;;;;;;;68.17;20.90;;;;;;;3.10;66.70;102064.09;4944510;28;97961;-79
2023/01/26 06:19:36;;;;;;;67.93;20.00;;;;;;;3.11;66.55;102079.22;4944764;28;96837;-77
2023/01/26 06:22:08;;;;;;;59.60;19.40;;;;;;;3.15;66.71;102068.31;4948485;28;96945;-78
2023/01/26 06:24:34;;;;;;;63.20;19.73;;;;;;;3.17;66.53;102072.16;4943402;28;97837;-80
2023/01/26 06:26:59;;;;;;;67.90;20.00;;;;;;;3.15;66.39;102073.75;4950007;28;98987;-78
2023/01/26 06:29:25;;;;;;;55.50;19.10;;;;;;;3.18;66.69;102070.22;4956805;28;97193;-79
2023/01/26 06:31:50;;;;;;;64.70;20.70;;;;;;;3.19;66.68;102079.94;4945182;28;97252;-77
2023/01/26 06:34:15;;;;;;;57.73;18.63;;;;;;;3.18;66.85;102075.66;4942207;28;96937;-78
2023/01/26 06:36:41;;;;;;;62.00;19.40;;;;;;;3.19;66.64;102069.06;4948977;28;97835;-79
2023/01/26 06:39:10;;;;;;;59.33;18.77;;;;;;;3.16;66.69;102076.06;4949985;28;96677;-78
2023/01/26 06:41:35;;;;;;;68.23;20.53;;;;;;;3.20;66.59;102086.91;4944377;28;97084;-78
2023/01/26 06:44:01;;;;;;;57.80;18.60;;;;;;;3.15;66.57;102088.13;4954626;28;98017;-75
2023/01/26 06:46:26;;;;;;;59.63;19.30;;;;;;;3.16;66.75;102076.06;4952449;28;97095;-79
2023/01/26 06:48:51;;;;;;;55.00;18.13;;;;;;;3.21;66.66;102088.47;4967403;28;97453;-78
2023/01/26 06:51:16;;;;;;;64.10;20.47;;;;;;;3.23;66.69;102084.16;4954437;28;97114;-78
2023/01/26 06:53:46;;;;;;;51.40;18.33;;;;;;;3.24;66.67;102079.47;4955212;28;99380;-79
2023/01/26 06:56:11;;;;;;;64.83;19.97;;;;;;;3.24;66.74;102082.19;4950170;28;99499;-77
2023/01/26 06:58:37;;;;;;;60.67;17.80;;;;;;;3.15;66.62;102062.88;4949383;28;97062;-78
2023/01/26 07:01:02;;;;;;;60.63;19.70;;;;;;;3.25;66.59;102068.19;4947991;28;97186;-78
2023/01/26 07:03:28;;;;;;;58.37;19.20;;;;;;;3.24;66.82;102126.47;4946807;28;97111;-78
2023/01/26 07:05:53;;;;;;;49.53;17.87;;;;;;;3.26;66.72;102077.09;4955423;28;98706;-79
2023/01/26 07:08:18;;;;;;;54.30;16.57;;;;;;;3.24;66.67;102082.19;4951232;28;97293;-78
2023/01/26 07:10:44;;;;;;;53.00;17.37;;;;;;;3.22;66.52;102079.88;4943103;28;97120;-78
2023/01/26 07:13:09;;;;;;;56.27;16.80;;;;;;;3.24;66.80;102082.97;4950958;28;100037;-80
2023/01/26 07:15:34;;;;;;;47.17;17.60;;;;;;;3.24;66.68;102072.09;4962509;28;98935;-79
2023/01/26 07:18:00;;;;;;;45.23;17.00;;;;;;;3.28;66.79;102080.19;4955357;28;96969;-79
2023/01/26 07:20:26;;;;;;;52.40;18.23;;;;;;;3.25;66.71;102070.91;4964037;28;96609;-79
2023/01/26 07:22:51;;;;;;;54.47;16.60;;;;;;;3.26;66.74;102067.00;4944564;28;97993;-78
2023/01/26 07:25:18;;;;;;;53.00;15.87;;;;;;;3.31;66.64;102077.44;4936469;28;99072;-76
2023/01/26 07:27:43;;;;;;;40.10;15.00;;;;;;;3.33;66.85;102098.78;4947635;28;97612;-78
2023/01/26 07:30:11;;;;;;;56.47;18.67;;;;;;;3.34;66.63;102141.13;4947832;28;98566;-78
2023/01/26 07:32:36;;;;;;;50.67;17.13;;;;;;;3.38;66.72;102082.03;4938296;28;99985;-79
2023/01/26 07:35:02;;;;;;;52.00;18.30;;;;;;;3.36;66.79;102087.09;4950786;28;98687;-78
2023/01/26 07:37:29;;;;;;;53.43;19.00;;;;;;;3.36;66.78;102085.16;4952081;28;97182;-78
2023/01/26 07:39:55;;;;;;;53.20;17.60;;;;;;;3.35;66.88;102093.72;4938159;28;96663;-80
2023/01/26 07:42:20;;;;;;;55.77;18.43;;;;;;;3.40;66.89;102091.31;4943994;28;96773;-78
2023/01/26 07:44:46;;;;;;;53.43;17.00;;;;;;;3.42;66.82;102085.47;4948778;28;99847;-78
2023/01/26 07:47:13;;;;;;;54.70;17.43;;;;;;;3.45;66.73;102085.41;4942316;28;96687;-78
2023/01/26 07:49:39;;;;;;;64.00;19.80;;;;;;;3.38;66.75;102080.09;4950037;28;97102;-78
2023/01/26 07:52:04;;;;;;;55.27;19.50;;;;;;;3.45;66.68;102092.81;4947708;28;100239;-78
2023/01/26 07:54:29;;;;;;;50.37;17.40;;;;;;;3.51;66.74;102096.63;4949131;28;98035;-78
2023/01/26 07:56:55;;;;;;;61.50;19.60;;;;;;;3.53;66.63;102092.31;4944267;28;96609;-79
2023/01/26 07:59:21;;;;;;;54.23;18.47;;;;;;;3.48;66.70;102075.66;4945451;28;97407;-78
2023/01/26 08:01:50;;;;;;;61.90;19.53;;;;;;;3.51;66.55;102097.41;4943591;28;96669;-78
2023/01/26 08:04:16;;;;;;;54.13;18.07;;;;;;;3.52;66.73;102079.88;4941285;28;97492;-79
2023/01/26 08:06:42;;;;;;;46.73;16.87;;;;;;;3.52;66.62;102098.94;4948330;28;97820;-78
2023/01/26 08:09:07;;;;;;;43.07;16.70;;;;;;;3.53;66.62;102137.81;4943385;28;97327;-79
2023/01/26 08:11:33;;;;;;;54.60;17.00;;;;;;;3.56;66.94;102093.47;4940496;28;99663;-78
2023/01/26 08:13:58;;;;;;;52.33;16.17;;;;;;;3.60;66.61;102099.63;4939077;28;97766;-79
2023/01/26 08:16:24;;;;;;;42.30;15.87;;;;;;;3.59;66.71;102103.50;4962709;28;97145;-79
2023/01/26 08:18:49;;;;;;;49.67;16.60;;;;;;;3.59;66.65;102106.22;4951227;28;96874;-78
2023/01/26 08:21:17;;;;;;;47.90;16.30;;;;;;;3.60;66.66;102088.75;4950898;28;98970;-80
2023/01/26 08:23:47;;;;;;;43.37;16.17;;;;;;;3.62;66.69;102092.59;4941836;28;100236;-79
2023/01/26 08:26:13;;;;;;;43.07;15.57;;;;;;;3.62;66.71;102102.72;4943674;28;97292;-78
2023/01/26 08:28:39;;;;;;;41.93;12.73;;;;;;;3.64;66.71;102103.84;4946786;28;97153;-78
2023/01/26 08:31:04;;;;;;;39.80;12.90;;;;;;;3.63;66.57;102099.56;4947241;28;98425;-78
2023/01/26 08:33:31;;;;;;;34.40;13.60;;;;;;;3.61;66.71;102095.72;4952299;28;99111;-78
2023/01/26 08:36:02;;;;;;;41.53;13.73;;;;;;;3.64;66.75;102097.63;4950246;28;97105;-80
2023/01/26 08:38:29;;;;;;;31.47;11.50;;;;;;;3.62;66.93;102103.47;4947754;28;97331;-78
2023/01/26 08:40:54;;;;;;;42.03;13.60;;;;;;;3.61;66.77;102110.09;4946485;28;97015;-78
2023/01/26 08:43:20;;;;;;;37.77;12.60;;;;;;;3.61;66.82;102117.47;4950624;28;97703;-80
2023/01/26 08:45:46;;;;;;;39.30;12.90;;;;;;;3.65;67.16;102096.44;4944363;28;97327;-78
2023/01/26 08:48:11;;;;;;;37.67;12.80;;;;;;;3.67;67.13;102103.00;4939924;28;96636;-78
2023/01/26 08:50:37;;;;;;;33.80;12.47;;;;;;;3.70;66.95;102098.69;4945994;28;98536;-78
2023/01/26 08:53:02;;;;;;;38.93;12.83;;;;;;;3.70;66.83;102096.75;4966582;28;99143;-79
2023/01/26 08:55:28;;;;;;;33.57;11.83;;;;;;;3.72;66.87;102101.78;4961044;28;99615;-78
2023/01/26 08:57:54;;;;;;;35.57;13.10;;;;;;;3.72;66.85;102099.06;4952286;28;97385;-79
2023/01/26 09:00:21;;;;;;;35.57;12.83;;;;;;;3.75;66.80;102114.59;4955998;28;98584;-77
2023/01/26 09:02:48;;;;;;;33.63;12.90;;;;;;;3.72;66.80;102088.16;4941556;28;97982;-80
2023/01/26 09:05:13;;;;;;;37.03;12.47;;;;;;;3.82;66.93;102111.78;4951897;28;97096;-80
2023/01/26 09:07:38;;;;;;;29.47;11.60;;;;;;;3.85;66.64;102135.44;4949596;28;97216;-78
2023/01/26 09:10:05;;;;;;;33.73;12.27;;;;;;;3.77;66.90;102091.22;4951026;28;99418;-78
2023/01/26 09:12:30;;;;;;;33.53;11.90;;;;;;;3.93;66.82;102106.94;4950507;28;97866;-78
2023/01/26 09:14:55;;;;;;;32.17;11.10;;;;;;;3.94;66.73;102104.97;4954667;28;96947;-78
2023/01/26 09:17:21;;;;;;;28.90;12.00;;;;;;;3.93;66.91;102119.78;4948523;28;97145;-78
2023/01/26 09:19:46;;;;;;;28.47;10.80;;;;;;;3.90;66.67;102105.03;4955522;28;97741;-78
2023/01/26 09:22:12;;;;;;;28.87;11.03;;;;;;;3.93;66.84;102117.84;4952866;28;97301;-79
2023/01/26 09:24:37;;;;;;;32.10;11.77;;;;;;;3.94;66.76;102116.66;4944168;28;97237;-78
2023/01/26 09:27:02;;;;;;;32.93;12.70;;;;;;;3.97;66.94;102151.22;4947458;28;97433;-78
2023/01/26 09:29:28;;;;;;;32.33;12.00;;;;;;;4.01;66.82;102118.50;4950155;28;98440;-81
2023/01/26 09:31:53;;;;;;;26.30;10.47;;;;;;;4.03;66.87;102130.53;4952642;28;100084;-78
2023/01/26 09:34:18;;;;;;;29.63;11.50;;;;;;;4.05;66.94;102108.31;4946313;28;97426;-79
2023/01/26 09:36:44;;;;;;;27.83;10.10;;;;;;;4.09;67.21;102112.53;4958577;28;97204;-78
2023/01/26 09:39:09;;;;;;;33.23;10.87;;;;;;;4.11;67.08;102115.59;4948995;28;100956;-78
2023/01/26 09:41:57;;;;;;;28.93;10.63;;;;;;;4.14;66.79;102112.06;4950301;28;97215;-79
2023/01/26 09:44:24;;;;;;;24.80;9.97;;;;;;;4.13;66.79;102107.78;4948831;28;97140;-78
2023/01/26 09:46:58;;;;;;;24.50;10.00;;;;;;;4.20;66.92;102113.16;4947334;28;97256;-80
2023/01/26 09:49:45;;;;;;;26.20;10.83;;;;;;;4.21;66.78;102105.75;4960350;28;99057;-79
2023/01/26 09:52:22;;;;;;;22.73;9.13;;;;;;;4.19;66.85;102114.34;4962574;28;98993;-78
2023/01/26 09:54:54;;;;;;;32.63;11.57;;;;;;;4.19;67.04;102119.00;4949904;28;97523;-81
2023/01/26 09:58:06;;;;;;;25.67;10.57;;;;;;;4.15;66.97;102105.44;4949066;28;97137;-79
2023/01/26 10:00:54;;;;;;;21.77;8.80;;;;;;;4.18;66.93;102115.50;4912684;28;98925;-79
2023/01/26 10:03:30;;;;;;;25.63;8.97;;;;;;;4.19;66.62;102111.63;4942868;28;99268;-77
2023/01/26 10:05:59;;;;;;;23.30;10.57;;;;;;;4.17;66.96;102175.84;4949425;28;97002;-78
2023/01/26 10:08:25;;;;;;;25.33;10.40;;;;;;;4.20;66.58;102107.69;4968933;28;97366;-78
2023/01/26 10:11:02;;;;;;;32.07;12.20;;;;;;;4.26;66.75;102103.31;4946037;28;97095;-78
2023/01/26 10:13:29;;;;;;;28.37;11.07;;;;;;;4.25;67.03;102092.84;4966102;28;99180;-80
2023/01/26 10:16:02;;;;;;;24.10;10.80;;;;;;;4.26;66.63;102102.56;4951420;28;97198;-78
2023/01/26 10:18:39;;;;;;;27.03;10.80;;;;;;;4.28;66.75;102100.94;4944040;28;97076;-78
2023/01/26 10:21:08;;;;;;;27.03;9.97;;;;;;;4.28;67.04;102100.94;4953358;28;101396;-79
2023/01/26 10:23:34;;;;;;;25.00;9.37;;;;;;;4.29;67.04;102077.22;4947155;28;100310;-79
2023/01/26 10:26:14;;;;;;;25.23;9.10;;;;;;;4.32;66.79;102071.72;4950130;28;97228;-78
2023/01/26 10:28:41;;;;;;;27.30;9.40;;;;;;;4.32;66.78;102074.44;4954655;28;97037;-78
2023/01/26 10:31:36;;;;;;;26.40;9.47;;;;;;;4.33;66.87;102095.03;4954487;28;98496;-80
2023/01/26 10:34:12;;;;;;;25.50;9.27;;;;;;;4.36;67.08;102075.16;4937391;28;100422;-79
2023/01/26 10:36:39;;;;;;;22.17;9.33;;;;;;;4.38;66.75;102083.69;4947385;28;97286;-79
2023/01/26 10:39:10;;;;;;;25.10;9.67;;;;;;;4.39;67.01;102060.69;4946100;28;96954;-79
2023/01/26 10:41:35;;;;;;;27.80;10.43;;;;;;;4.41;67.04;102058.31;4949568;28;100428;-78
2023/01/26 10:44:33;;;;;;;25.70;9.07;;;;;;;4.45;66.68;102050.09;4951957;28;99750;-78
2023/01/26 10:47:17;;;;;;;31.00;9.80;;;;;;;4.44;66.72;102059.44;4956146;28;96847;-79
2023/01/26 10:49:42;;;;;;;22.70;9.23;;;;;;;4.42;67.15;102083.59;4953494;28;97236;-79
2023/01/26 10:52:23;;;;;;;22.47;9.10;;;;;;;4.47;66.72;102043.03;4964851;28;99516;-81
2023/01/26 10:55:09;;;;;;;26.13;9.50;;;;;;;4.49;66.99;102039.91;4949183;28;96701;-82
2023/01/26 10:57:40;;;;;;;23.10;8.50;;;;;;;4.50;66.89;102036.75;4948477;28;97116;-78
2023/01/26 11:00:19;;;;;;;24.10;8.97;;;;;;;4.56;66.94;102056.13;4943832;28;97209;-79
2023/01/26 11:02:53;;;;;;;25.97;9.80;;;;;;;4.58;66.66;102042.84;4942687;28;98151;-80
2023/01/26 11:05:23;;;;;;;28.30;9.80;;;;;;;4.60;67.08;102047.88;4952751;28;97143;-82
2023/01/26 11:08:01;;;;;;;28.33;9.67;;;;;;;4.60;66.97;102028.81;4949016;28;97335;-82
2023/01/26 11:10:33;;;;;;;18.97;8.07;;;;;;;4.64;67.00;102045.84;4944995;28;97130;-79
2023/01/26 11:13:18;;;;;;;25.20;9.30;;;;;;;4.64;66.83;102054.81;4955186;28;97897;-81
2023/01/26 11:15:48;;;;;;;20.50;8.93;;;;;;;4.63;66.97;102047.06;4949603;28;97469;-80
2023/01/26 11:18:32;;;;;;;21.50;8.57;;;;;;;4.57;66.94;102042.06;4942849;28;97053;-79
2023/01/26 11:21:15;;;;;;;23.23;8.37;;;;;;;4.56;66.97;102040.53;4951615;28;96882;-79
2023/01/26 11:24:07;;;;;;;26.00;9.40;;;;;;;4.57;66.86;102031.16;4944953;28;97914;-79
2023/01/26 11:26:50;;;;;;;18.43;8.00;;;;;;;4.60;66.91;102026.06;4938478;28;97902;-79
2023/01/26 11:29:37;;;;;;;18.60;8.10;;;;;;;4.60;66.86;102028.81;4955437;28;96689;-79
2023/01/26 11:32:28;;;;;;;18.03;7.83;;;;;;;4.61;66.87;102024.91;4945220;28;97131;-79
2023/01/26 11:35:21;;;;;;;21.20;9.00;;;;;;;4.60;66.93;102028.81;4949308;28;97095;-80
2023/01/26 11:37:55;;;;;;;20.60;9.50;;;;;;;4.56;67.04;102026.91;4950945;28;96987;-79
2023/01/26 11:40:39;;;;;;;22.07;8.53;;;;;;;4.60;67.02;102020.63;4948439;28;97168;-79
2023/01/26 11:43:19;;;;;;;24.87;8.87;;;;;;;4.62;67.13;102026.44;4951280;28;97613;-80
2023/01/26 11:46:10;;;;;;;21.63;8.80;;;;;;;4.63;66.87;102020.53;4959710;28;99522;-79
2023/01/26 11:48:51;;;;;;;15.60;7.60;;;;;;;4.66;67.07;102018.94;4938376;28;96785;-79
2023/01/26 11:51:28;;;;;;;24.10;8.63;;;;;;;4.66;66.92;102027.91;4967812;28;97397;-79
2023/01/26 11:54:12;;;;;;;19.27;8.80;;;;;;;4.66;66.77;102019.72;4944982;28;97448;-79
2023/01/26 11:57:03;;;;;;;23.13;9.30;;;;;;;4.67;67.10;102020.50;4945120;28;99398;-78
2023/01/26 11:59:39;;;;;;;21.57;7.80;;;;;;;4.64;66.92;102019.38;4955549;28;99467;-79
2023/01/26 12:02:31;;;;;;;24.13;9.90;;;;;;;4.66;67.05;102017.00;4959291;28;97037;-80
2023/01/26 12:05:01;;;;;;;20.37;9.17;;;;;;;4.65;67.13;102012.75;4954287;28;96915;-79
2023/01/26 12:07:50;;;;;;;24.73;9.23;;;;;;;4.70;67.07;102008.75;4942371;28;99207;-79
2023/01/26 12:10:18;;;;;;;28.30;9.77;;;;;;;4.72;67.01;101995.50;4956310;28;99774;-78
2023/01/26 12:12:53;;;;;;;21.97;9.37;;;;;;;4.74;67.04;102012.19;4947509;28;96946;-79